sensor_id;sensor_type;location;lat;lon;timestamp;temperature;humidity
4518;DHT22;2271;49.464;11.070;2022-08-19T00:00:05;23.50;99.90
4518;DHT22;2271;49.464;11.070;2022-08-19T00:02:31;23.50;99.90
4518;DHT22;2271;49.464;11.070;2022-08-19T00:04:57;23.40;99.90
4518;DHT22;2271;49.464;11.070;2022-08-19T00:07:23;23.40;99.90
4518;DHT22;2271;49.464;11.070;2022-08-19T00:09:48;23.40;99.90
4518;DHT22;2271;49.464;11.070;2022-08-19T00:12:23;23.40;99.90
4518;DHT22;2271;49.464;11.070;2022-08-19T00:14:49;23.40;99.90
4518;DHT22;2271;49.464;11.070;2022-08-19T00:17:14;23.40;99.90
4518;DHT22;2271;49.464;11.070;2022-08-19T00:19:40;23.40;99.90
4518;DHT22;2271;49.464;11.070;2022-08-19T00:22:06;23.40;99.90
4518;DHT22;2271;49.464;11.070;2022-08-19T00:24:33;23.40;99.90
4518;DHT22;2271;49.464;11.070;2022-08-19T00:26:59;23.30;99.90
4518;DHT22;2271;49.464;11.070;2022-08-19T00:29:27;23.40;99.90
4518;DHT22;2271;49.464;11.070;2022-08-19T00:31:53;23.30;99.90
4518;DHT22;2271;49.464;11.070;2022-08-19T00:34:20;23.30;99.90
4518;DHT22;2271;49.464;11.070;2022-08-19T00:36:47;23.30;99.90
4518;DHT22;2271;49.464;11.070;2022-08-19T00:39:13;23.20;99.90
4518;DHT22;2271;49.464;11.070;2022-08-19T00:41:40;23.20;99.90
4518;DHT22;2271;49.464;11.070;2022-08-19T00:44:13;23.20;99.90
4518;DHT22;2271;49.464;11.070;2022-08-19T00:46:42;23.20;99.90
4518;DHT22;2271;49.464;11.070;2022-08-19T00:49:12;23.20;99.90
4518;DHT22;2271;49.464;11.070;2022-08-19T00:51:41;23.20;99.90
4518;DHT22;2271;49.464;11.070;2022-08-19T00:54:08;23.20;99.90
4518;DHT22;2271;49.464;11.070;2022-08-19T00:56:35;23.20;99.90
4518;DHT22;2271;49.464;11.070;2022-08-19T00:59:02;23.20;99.90
4518;DHT22;2271;49.464;11.070;2022-08-19T01:01:28;23.20;99.90
4518;DHT22;2271;49.464;11.070;2022-08-19T01:03:54;23.20;99.90
4518;DHT22;2271;49.464;11.070;2022-08-19T01:06:20;23.20;99.90
4518;DHT22;2271;49.464;11.070;2022-08-19T01:08:46;23.20;99.90
4518;DHT22;2271;49.464;11.070;2022-08-19T01:11:12;23.20;99.90
4518;DHT22;2271;49.464;11.070;2022-08-19T01:13:38;23.20;99.90
4518;DHT22;2271;49.464;11.070;2022-08-19T01:16:08;23.30;99.90
4518;DHT22;2271;49.464;11.070;2022-08-19T01:18:38;23.30;99.90
4518;DHT22;2271;49.464;11.070;2022-08-19T01:23:52;23.40;99.90
4518;DHT22;2271;49.464;11.070;2022-08-19T01:26:22;23.30;99.90
4518;DHT22;2271;49.464;11.070;2022-08-19T01:28:50;23.30;99.90
4518;DHT22;2271;49.464;11.070;2022-08-19T01:31:20;23.30;99.90
4518;DHT22;2271;49.464;11.070;2022-08-19T01:33:47;23.30;99.90
4518;DHT22;2271;49.464;11.070;2022-08-19T01:36:16;23.40;99.90
4518;DHT22;2271;49.464;11.070;2022-08-19T01:38:47;23.30;99.90
4518;DHT22;2271;49.464;11.070;2022-08-19T01:41:13;23.30;99.90
4518;DHT22;2271;49.464;11.070;2022-08-19T01:43:40;23.30;99.90
4518;DHT22;2271;49.464;11.070;2022-08-19T01:46:06;23.30;99.90
4518;DHT22;2271;49.464;11.070;2022-08-19T01:48:37;23.20;99.90
4518;DHT22;2271;49.464;11.070;2022-08-19T01:51:03;23.20;99.90
4518;DHT22;2271;49.464;11.070;2022-08-19T01:53:29;23.20;99.90
4518;DHT22;2271;49.464;11.070;2022-08-19T01:55:55;23.20;99.90
4518;DHT22;2271;49.464;11.070;2022-08-19T01:58:24;23.20;99.90
4518;DHT22;2271;49.464;11.070;2022-08-19T02:00:51;23.20;99.90
4518;DHT22;2271;49.464;11.070;2022-08-19T02:03:17;23.20;99.90
4518;DHT22;2271;49.464;11.070;2022-08-19T02:05:43;23.20;99.90
4518;DHT22;2271;49.464;11.070;2022-08-19T02:08:10;23.20;99.90
4518;DHT22;2271;49.464;11.070;2022-08-19T02:10:40;23.20;99.90
4518;DHT22;2271;49.464;11.070;2022-08-19T02:13:06;23.20;99.90
4518;DHT22;2271;49.464;11.070;2022-08-19T02:15:32;23.30;99.90
4518;DHT22;2271;49.464;11.070;2022-08-19T02:17:57;23.30;99.90
4518;DHT22;2271;49.464;11.070;2022-08-19T02:20:23;23.30;99.90
4518;DHT22;2271;49.464;11.070;2022-08-19T02:22:49;23.30;99.90
4518;DHT22;2271;49.464;11.070;2022-08-19T02:25:15;23.20;99.90
4518;DHT22;2271;49.464;11.070;2022-08-19T02:27:42;23.20;99.90
4518;DHT22;2271;49.464;11.070;2022-08-19T02:30:14;23.20;99.90
4518;DHT22;2271;49.464;11.070;2022-08-19T02:32:41;23.20;99.90
4518;DHT22;2271;49.464;11.070;2022-08-19T02:35:07;23.20;99.90
4518;DHT22;2271;49.464;11.070;2022-08-19T02:37:34;23.20;99.90
4518;DHT22;2271;49.464;11.070;2022-08-19T02:40:18;23.20;99.90
4518;DHT22;2271;49.464;11.070;2022-08-19T02:42:45;23.30;99.90
4518;DHT22;2271;49.464;11.070;2022-08-19T02:45:12;23.30;99.90
4518;DHT22;2271;49.464;11.070;2022-08-19T02:47:38;23.20;99.90
4518;DHT22;2271;49.464;11.070;2022-08-19T02:50:04;23.20;99.90
4518;DHT22;2271;49.464;11.070;2022-08-19T02:52:31;23.20;99.90
4518;DHT22;2271;49.464;11.070;2022-08-19T02:54:57;23.20;99.90
4518;DHT22;2271;49.464;11.070;2022-08-19T02:57:24;23.20;99.90
4518;DHT22;2271;49.464;11.070;2022-08-19T02:59:50;23.30;99.90
4518;DHT22;2271;49.464;11.070;2022-08-19T03:02:15;23.30;99.90
4518;DHT22;2271;49.464;11.070;2022-08-19T03:04:41;23.30;99.90
4518;DHT22;2271;49.464;11.070;2022-08-19T03:07:08;23.30;99.90
4518;DHT22;2271;49.464;11.070;2022-08-19T03:09:37;23.30;99.90
4518;DHT22;2271;49.464;11.070;2022-08-19T03:12:03;23.30;99.90
4518;DHT22;2271;49.464;11.070;2022-08-19T03:14:33;23.30;99.90
4518;DHT22;2271;49.464;11.070;2022-08-19T03:16:59;23.30;99.90
4518;DHT22;2271;49.464;11.070;2022-08-19T03:19:25;23.30;99.90
4518;DHT22;2271;49.464;11.070;2022-08-19T03:21:52;23.30;99.90
4518;DHT22;2271;49.464;11.070;2022-08-19T03:24:18;23.30;99.90
4518;DHT22;2271;49.464;11.070;2022-08-19T03:26:49;23.30;99.90
4518;DHT22;2271;49.464;11.070;2022-08-19T03:29:15;23.30;99.90
4518;DHT22;2271;49.464;11.070;2022-08-19T03:31:42;23.30;99.90
4518;DHT22;2271;49.464;11.070;2022-08-19T03:34:10;23.40;99.90
4518;DHT22;2271;49.464;11.070;2022-08-19T03:36:37;23.40;99.90
4518;DHT22;2271;49.464;11.070;2022-08-19T03:39:03;23.40;99.90
4518;DHT22;2271;49.464;11.070;2022-08-19T03:41:36;23.40;99.90
4518;DHT22;2271;49.464;11.070;2022-08-19T03:44:02;23.50;99.90
4518;DHT22;2271;49.464;11.070;2022-08-19T03:46:32;23.70;99.90
4518;DHT22;2271;49.464;11.070;2022-08-19T03:49:00;23.80;99.90
4518;DHT22;2271;49.464;11.070;2022-08-19T03:51:28;23.80;99.90
4518;DHT22;2271;49.464;11.070;2022-08-19T03:53:57;23.90;99.90
4518;DHT22;2271;49.464;11.070;2022-08-19T03:56:23;23.90;99.90
4518;DHT22;2271;49.464;11.070;2022-08-19T03:58:51;24.20;99.90
4518;DHT22;2271;49.464;11.070;2022-08-19T04:01:20;24.50;99.90
4518;DHT22;2271;49.464;11.070;2022-08-19T04:03:46;24.60;99.90
4518;DHT22;2271;49.464;11.070;2022-08-19T04:06:18;24.60;99.90
4518;DHT22;2271;49.464;11.070;2022-08-19T04:08:45;24.30;99.90
4518;DHT22;2271;49.464;11.070;2022-08-19T04:11:14;24.00;99.90
4518;DHT22;2271;49.464;11.070;2022-08-19T04:13:40;23.70;99.90
4518;DHT22;2271;49.464;11.070;2022-08-19T04:16:07;23.50;99.90
4518;DHT22;2271;49.464;11.070;2022-08-19T04:18:35;23.40;99.90
4518;DHT22;2271;49.464;11.070;2022-08-19T04:21:02;23.30;99.90
4518;DHT22;2271;49.464;11.070;2022-08-19T04:23:28;23.30;99.90
4518;DHT22;2271;49.464;11.070;2022-08-19T04:25:54;23.20;99.90
4518;DHT22;2271;49.464;11.070;2022-08-19T04:28:20;23.20;99.90
4518;DHT22;2271;49.464;11.070;2022-08-19T04:30:49;23.20;99.90
4518;DHT22;2271;49.464;11.070;2022-08-19T04:33:17;23.20;99.90
4518;DHT22;2271;49.464;11.070;2022-08-19T04:35:45;23.20;99.90
4518;DHT22;2271;49.464;11.070;2022-08-19T04:38:13;23.20;99.90
4518;DHT22;2271;49.464;11.070;2022-08-19T04:40:41;23.20;99.90
4518;DHT22;2271;49.464;11.070;2022-08-19T04:43:26;23.10;99.90
4518;DHT22;2271;49.464;11.070;2022-08-19T04:45:52;23.20;99.90
4518;DHT22;2271;49.464;11.070;2022-08-19T04:48:18;23.20;99.90
4518;DHT22;2271;49.464;11.070;2022-08-19T04:50:52;23.10;99.90
4518;DHT22;2271;49.464;11.070;2022-08-19T04:53:24;23.20;99.90
4518;DHT22;2271;49.464;11.070;2022-08-19T04:55:50;23.20;99.90
4518;DHT22;2271;49.464;11.070;2022-08-19T04:58:17;23.10;99.90
4518;DHT22;2271;49.464;11.070;2022-08-19T05:00:43;23.10;99.90
4518;DHT22;2271;49.464;11.070;2022-08-19T05:03:09;23.10;99.90
4518;DHT22;2271;49.464;11.070;2022-08-19T05:05:41;22.90;99.90
4518;DHT22;2271;49.464;11.070;2022-08-19T05:08:07;22.80;99.90
4518;DHT22;2271;49.464;11.070;2022-08-19T05:10:35;22.70;99.90
4518;DHT22;2271;49.464;11.070;2022-08-19T05:13:02;22.80;99.90
4518;DHT22;2271;49.464;11.070;2022-08-19T05:15:28;22.90;99.90
4518;DHT22;2271;49.464;11.070;2022-08-19T05:17:53;22.90;99.90
4518;DHT22;2271;49.464;11.070;2022-08-19T05:20:38;22.90;99.90
4518;DHT22;2271;49.464;11.070;2022-08-19T05:23:22;23.00;99.90
4518;DHT22;2271;49.464;11.070;2022-08-19T05:25:48;22.80;99.90
4518;DHT22;2271;49.464;11.070;2022-08-19T05:28:15;22.80;99.90
4518;DHT22;2271;49.464;11.070;2022-08-19T05:30:41;22.90;99.90
4518;DHT22;2271;49.464;11.070;2022-08-19T05:33:08;23.00;99.90
4518;DHT22;2271;49.464;11.070;2022-08-19T05:35:36;23.10;99.90
4518;DHT22;2271;49.464;11.070;2022-08-19T05:38:03;23.00;99.90
4518;DHT22;2271;49.464;11.070;2022-08-19T05:40:28;23.10;99.90
4518;DHT22;2271;49.464;11.070;2022-08-19T05:42:54;23.10;99.90
4518;DHT22;2271;49.464;11.070;2022-08-19T05:45:20;23.20;99.90
4518;DHT22;2271;49.464;11.070;2022-08-19T05:47:47;23.10;99.90
4518;DHT22;2271;49.464;11.070;2022-08-19T05:50:13;23.10;99.90
4518;DHT22;2271;49.464;11.070;2022-08-19T05:52:39;22.90;99.90
4518;DHT22;2271;49.464;11.070;2022-08-19T05:55:05;22.80;99.90
4518;DHT22;2271;49.464;11.070;2022-08-19T05:57:31;22.80;99.90
4518;DHT22;2271;49.464;11.070;2022-08-19T05:59:57;22.90;99.90
4518;DHT22;2271;49.464;11.070;2022-08-19T06:02:26;23.00;99.90
4518;DHT22;2271;49.464;11.070;2022-08-19T06:04:52;23.10;99.90
4518;DHT22;2271;49.464;11.070;2022-08-19T06:07:17;23.20;99.90
4518;DHT22;2271;49.464;11.070;2022-08-19T06:09:43;23.30;99.90
4518;DHT22;2271;49.464;11.070;2022-08-19T06:12:08;23.50;99.90
4518;DHT22;2271;49.464;11.070;2022-08-19T06:14:35;23.80;99.90
4518;DHT22;2271;49.464;11.070;2022-08-19T06:17:01;24.00;99.90
4518;DHT22;2271;49.464;11.070;2022-08-19T06:19:29;24.20;99.90
4518;DHT22;2271;49.464;11.070;2022-08-19T06:21:58;24.40;99.90
4518;DHT22;2271;49.464;11.070;2022-08-19T06:24:26;24.60;99.90
4518;DHT22;2271;49.464;11.070;2022-08-19T06:26:54;24.40;99.90
4518;DHT22;2271;49.464;11.070;2022-08-19T06:29:23;24.50;99.90
4518;DHT22;2271;49.464;11.070;2022-08-19T06:31:50;24.50;99.90
4518;DHT22;2271;49.464;11.070;2022-08-19T06:34:17;24.70;99.90
4518;DHT22;2271;49.464;11.070;2022-08-19T06:36:46;25.00;99.90
4518;DHT22;2271;49.464;11.070;2022-08-19T06:39:17;25.20;99.90
4518;DHT22;2271;49.464;11.070;2022-08-19T06:41:46;25.10;99.90
4518;DHT22;2271;49.464;11.070;2022-08-19T06:44:13;25.00;99.90
4518;DHT22;2271;49.464;11.070;2022-08-19T06:46:39;24.70;99.90
4518;DHT22;2271;49.464;11.070;2022-08-19T06:49:05;24.40;99.90
4518;DHT22;2271;49.464;11.070;2022-08-19T06:51:31;24.20;99.90
4518;DHT22;2271;49.464;11.070;2022-08-19T06:53:58;23.70;99.90
4518;DHT22;2271;49.464;11.070;2022-08-19T06:56:27;23.70;99.90
4518;DHT22;2271;49.464;11.070;2022-08-19T06:59:03;23.60;99.90
4518;DHT22;2271;49.464;11.070;2022-08-19T07:01:29;23.70;99.90
4518;DHT22;2271;49.464;11.070;2022-08-19T07:03:54;23.70;99.90
4518;DHT22;2271;49.464;11.070;2022-08-19T07:06:21;23.70;99.90
4518;DHT22;2271;49.464;11.070;2022-08-19T07:08:47;23.60;99.90
4518;DHT22;2271;49.464;11.070;2022-08-19T07:11:15;23.50;99.90
4518;DHT22;2271;49.464;11.070;2022-08-19T07:13:41;23.50;99.90
4518;DHT22;2271;49.464;11.070;2022-08-19T07:16:11;23.60;99.90
4518;DHT22;2271;49.464;11.070;2022-08-19T07:18:37;23.60;99.90
4518;DHT22;2271;49.464;11.070;2022-08-19T07:21:09;23.80;99.90
4518;DHT22;2271;49.464;11.070;2022-08-19T07:23:35;23.80;99.90
4518;DHT22;2271;49.464;11.070;2022-08-19T07:26:12;23.80;99.90
4518;DHT22;2271;49.464;11.070;2022-08-19T07:28:38;23.80;99.90
4518;DHT22;2271;49.464;11.070;2022-08-19T07:31:07;23.70;99.90
4518;DHT22;2271;49.464;11.070;2022-08-19T07:33:33;23.70;99.90
4518;DHT22;2271;49.464;11.070;2022-08-19T07:36:06;23.70;99.90
4518;DHT22;2271;49.464;11.070;2022-08-19T07:38:33;23.80;99.90
4518;DHT22;2271;49.464;11.070;2022-08-19T07:41:00;23.70;99.90
4518;DHT22;2271;49.464;11.070;2022-08-19T07:43:26;23.60;99.90
4518;DHT22;2271;49.464;11.070;2022-08-19T07:45:55;23.40;99.90
4518;DHT22;2271;49.464;11.070;2022-08-19T07:48:26;23.00;99.90
4518;DHT22;2271;49.464;11.070;2022-08-19T07:50:57;23.10;99.90
4518;DHT22;2271;49.464;11.070;2022-08-19T07:53:24;23.20;99.90
4518;DHT22;2271;49.464;11.070;2022-08-19T07:55:50;23.20;99.90
4518;DHT22;2271;49.464;11.070;2022-08-19T07:58:19;23.10;99.90
4518;DHT22;2271;49.464;11.070;2022-08-19T08:00:47;23.00;99.90
4518;DHT22;2271;49.464;11.070;2022-08-19T08:03:15;22.70;99.90
4518;DHT22;2271;49.464;11.070;2022-08-19T08:05:41;22.20;99.90
4518;DHT22;2271;49.464;11.070;2022-08-19T08:08:26;22.00;99.90
4518;DHT22;2271;49.464;11.070;2022-08-19T08:11:10;21.90;99.90
4518;DHT22;2271;49.464;11.070;2022-08-19T08:13:36;22.10;99.90
4518;DHT22;2271;49.464;11.070;2022-08-19T08:16:02;22.30;99.90
4518;DHT22;2271;49.464;11.070;2022-08-19T08:18:28;22.30;99.90
4518;DHT22;2271;49.464;11.070;2022-08-19T08:20:57;22.30;99.90
4518;DHT22;2271;49.464;11.070;2022-08-19T08:23:24;22.50;99.90
4518;DHT22;2271;49.464;11.070;2022-08-19T08:25:56;22.40;99.90
4518;DHT22;2271;49.464;11.070;2022-08-19T08:28:23;22.40;99.90
4518;DHT22;2271;49.464;11.070;2022-08-19T08:30:50;22.70;99.90
4518;DHT22;2271;49.464;11.070;2022-08-19T08:33:20;23.00;99.90
4518;DHT22;2271;49.464;11.070;2022-08-19T08:35:46;23.20;99.90
4518;DHT22;2271;49.464;11.070;2022-08-19T08:38:13;23.40;99.90
4518;DHT22;2271;49.464;11.070;2022-08-19T08:40:52;23.50;99.90
4518;DHT22;2271;49.464;11.070;2022-08-19T08:43:24;23.60;99.90
4518;DHT22;2271;49.464;11.070;2022-08-19T08:45:59;23.70;99.90
4518;DHT22;2271;49.464;11.070;2022-08-19T08:48:45;23.80;99.90
4518;DHT22;2271;49.464;11.070;2022-08-19T08:51:39;23.80;99.90
4518;DHT22;2271;49.464;11.070;2022-08-19T08:54:13;23.80;99.90
4518;DHT22;2271;49.464;11.070;2022-08-19T08:56:41;23.80;99.90
4518;DHT22;2271;49.464;11.070;2022-08-19T09:01:38;23.60;99.90
4518;DHT22;2271;49.464;11.070;2022-08-19T09:04:05;23.60;99.90
4518;DHT22;2271;49.464;11.070;2022-08-19T09:06:39;23.70;99.90
4518;DHT22;2271;49.464;11.070;2022-08-19T09:09:17;23.60;99.90
4518;DHT22;2271;49.464;11.070;2022-08-19T09:11:55;23.60;99.90
4518;DHT22;2271;49.464;11.070;2022-08-19T09:14:46;23.60;99.90
4518;DHT22;2271;49.464;11.070;2022-08-19T09:17:13;23.60;99.90
4518;DHT22;2271;49.464;11.070;2022-08-19T09:19:54;23.70;99.90
4518;DHT22;2271;49.464;11.070;2022-08-19T09:22:21;23.60;99.90
4518;DHT22;2271;49.464;11.070;2022-08-19T09:24:51;23.60;99.90
4518;DHT22;2271;49.464;11.070;2022-08-19T09:27:21;23.70;99.90
4518;DHT22;2271;49.464;11.070;2022-08-19T09:29:49;23.70;99.90
4518;DHT22;2271;49.464;11.070;2022-08-19T09:32:15;23.70;99.90
4518;DHT22;2271;49.464;11.070;2022-08-19T09:34:42;23.70;99.90
4518;DHT22;2271;49.464;11.070;2022-08-19T09:37:08;23.70;99.90
4518;DHT22;2271;49.464;11.070;2022-08-19T09:39:34;23.70;99.90
4518;DHT22;2271;49.464;11.070;2022-08-19T09:42:00;23.70;99.90
4518;DHT22;2271;49.464;11.070;2022-08-19T09:44:25;23.70;99.90
4518;DHT22;2271;49.464;11.070;2022-08-19T09:46:51;23.70;99.90
4518;DHT22;2271;49.464;11.070;2022-08-19T09:49:18;23.60;99.90
4518;DHT22;2271;49.464;11.070;2022-08-19T09:51:50;23.60;99.90
4518;DHT22;2271;49.464;11.070;2022-08-19T09:54:17;23.70;99.90
4518;DHT22;2271;49.464;11.070;2022-08-19T09:56:42;23.70;99.90
4518;DHT22;2271;49.464;11.070;2022-08-19T09:59:10;23.80;99.90
4518;DHT22;2271;49.464;11.070;2022-08-19T10:01:37;23.80;99.90
4518;DHT22;2271;49.464;11.070;2022-08-19T10:04:03;23.80;99.90
4518;DHT22;2271;49.464;11.070;2022-08-19T10:06:34;23.70;99.90
4518;DHT22;2271;49.464;11.070;2022-08-19T10:09:00;23.70;99.90
4518;DHT22;2271;49.464;11.070;2022-08-19T10:11:26;23.70;99.90
4518;DHT22;2271;49.464;11.070;2022-08-19T10:13:52;23.60;99.90
4518;DHT22;2271;49.464;11.070;2022-08-19T10:16:20;23.60;99.90
4518;DHT22;2271;49.464;11.070;2022-08-19T10:18:47;23.60;99.90
4518;DHT22;2271;49.464;11.070;2022-08-19T10:21:19;23.70;99.90
4518;DHT22;2271;49.464;11.070;2022-08-19T10:23:47;23.70;99.90
4518;DHT22;2271;49.464;11.070;2022-08-19T10:26:20;23.70;99.90
4518;DHT22;2271;49.464;11.070;2022-08-19T10:28:46;23.80;99.90
4518;DHT22;2271;49.464;11.070;2022-08-19T10:31:18;23.80;99.90
4518;DHT22;2271;49.464;11.070;2022-08-19T10:33:46;23.70;99.90
4518;DHT22;2271;49.464;11.070;2022-08-19T10:36:18;23.40;99.90
4518;DHT22;2271;49.464;11.070;2022-08-19T10:38:46;23.40;99.90
4518;DHT22;2271;49.464;11.070;2022-08-19T10:43:40;23.50;99.90
4518;DHT22;2271;49.464;11.070;2022-08-19T10:46:12;23.50;99.90
4518;DHT22;2271;49.464;11.070;2022-08-19T10:48:37;23.60;99.90
4518;DHT22;2271;49.464;11.070;2022-08-19T10:51:04;23.60;99.90
4518;DHT22;2271;49.464;11.070;2022-08-19T10:53:49;23.70;99.90
4518;DHT22;2271;49.464;11.070;2022-08-19T10:56:15;23.70;99.90
4518;DHT22;2271;49.464;11.070;2022-08-19T10:58:59;23.70;99.90
4518;DHT22;2271;49.464;11.070;2022-08-19T11:01:26;23.80;99.90
4518;DHT22;2271;49.464;11.070;2022-08-19T11:03:52;23.70;99.90
4518;DHT22;2271;49.464;11.070;2022-08-19T11:06:18;23.80;99.90
4518;DHT22;2271;49.464;11.070;2022-08-19T11:08:44;23.80;99.90
4518;DHT22;2271;49.464;11.070;2022-08-19T11:11:11;23.80;99.90
4518;DHT22;2271;49.464;11.070;2022-08-19T11:13:38;23.70;99.90
4518;DHT22;2271;49.464;11.070;2022-08-19T11:16:08;23.80;99.90
4518;DHT22;2271;49.464;11.070;2022-08-19T11:18:39;23.80;99.90
4518;DHT22;2271;49.464;11.070;2022-08-19T11:21:15;23.80;99.90
4518;DHT22;2271;49.464;11.070;2022-08-19T11:23:43;23.70;99.90
4518;DHT22;2271;49.464;11.070;2022-08-19T11:26:09;23.70;99.90
4518;DHT22;2271;49.464;11.070;2022-08-19T11:28:35;23.70;99.90
4518;DHT22;2271;49.464;11.070;2022-08-19T11:31:01;23.60;99.90
4518;DHT22;2271;49.464;11.070;2022-08-19T11:33:30;23.30;99.90
4518;DHT22;2271;49.464;11.070;2022-08-19T11:35:58;23.00;99.90
4518;DHT22;2271;49.464;11.070;2022-08-19T11:38:25;22.90;99.90
4518;DHT22;2271;49.464;11.070;2022-08-19T11:40:58;23.00;99.90
4518;DHT22;2271;49.464;11.070;2022-08-19T11:43:24;23.20;99.90
4518;DHT22;2271;49.464;11.070;2022-08-19T11:45:53;23.30;99.90
4518;DHT22;2271;49.464;11.070;2022-08-19T11:48:19;23.10;99.90
4518;DHT22;2271;49.464;11.070;2022-08-19T11:50:52;23.10;99.90
4518;DHT22;2271;49.464;11.070;2022-08-19T11:53:18;22.90;99.90
4518;DHT22;2271;49.464;11.070;2022-08-19T11:55:46;22.70;99.90
4518;DHT22;2271;49.464;11.070;2022-08-19T11:58:12;22.60;99.90
4518;DHT22;2271;49.464;11.070;2022-08-19T12:00:39;22.50;99.90
4518;DHT22;2271;49.464;11.070;2022-08-19T12:03:06;22.70;99.90
4518;DHT22;2271;49.464;11.070;2022-08-19T12:05:32;22.80;99.90
4518;DHT22;2271;49.464;11.070;2022-08-19T12:07:57;22.80;99.90
4518;DHT22;2271;49.464;11.070;2022-08-19T12:10:24;22.80;99.90
4518;DHT22;2271;49.464;11.070;2022-08-19T12:15:15;22.60;99.90
4518;DHT22;2271;49.464;11.070;2022-08-19T12:17:42;22.60;99.90
4518;DHT22;2271;49.464;11.070;2022-08-19T12:20:09;22.70;99.90
4518;DHT22;2271;49.464;11.070;2022-08-19T12:22:36;22.70;99.90
4518;DHT22;2271;49.464;11.070;2022-08-19T12:25:03;22.70;99.90
4518;DHT22;2271;49.464;11.070;2022-08-19T12:27:30;22.80;99.90
4518;DHT22;2271;49.464;11.070;2022-08-19T12:29:56;22.90;99.90
4518;DHT22;2271;49.464;11.070;2022-08-19T12:32:23;22.90;99.90
4518;DHT22;2271;49.464;11.070;2022-08-19T12:34:50;22.90;99.90
4518;DHT22;2271;49.464;11.070;2022-08-19T12:37:16;22.90;99.90
4518;DHT22;2271;49.464;11.070;2022-08-19T12:39:42;22.90;99.90
4518;DHT22;2271;49.464;11.070;2022-08-19T12:42:09;22.90;99.90
4518;DHT22;2271;49.464;11.070;2022-08-19T12:44:37;23.10;99.90
4518;DHT22;2271;49.464;11.070;2022-08-19T12:47:05;23.10;99.90
4518;DHT22;2271;49.464;11.070;2022-08-19T12:49:31;22.90;99.90
4518;DHT22;2271;49.464;11.070;2022-08-19T12:51:59;22.80;99.90
4518;DHT22;2271;49.464;11.070;2022-08-19T12:54:25;22.80;99.90
4518;DHT22;2271;49.464;11.070;2022-08-19T12:56:51;23.00;99.90
4518;DHT22;2271;49.464;11.070;2022-08-19T12:59:17;23.10;99.90
4518;DHT22;2271;49.464;11.070;2022-08-19T13:01:44;23.10;99.90
4518;DHT22;2271;49.464;11.070;2022-08-19T13:04:11;23.20;99.90
4518;DHT22;2271;49.464;11.070;2022-08-19T13:06:36;23.20;99.90
4518;DHT22;2271;49.464;11.070;2022-08-19T13:09:04;23.20;99.90
4518;DHT22;2271;49.464;11.070;2022-08-19T13:11:30;23.20;99.90
4518;DHT22;2271;49.464;11.070;2022-08-19T13:13:59;23.20;99.90
4518;DHT22;2271;49.464;11.070;2022-08-19T13:16:27;23.20;99.90
4518;DHT22;2271;49.464;11.070;2022-08-19T13:18:54;23.20;99.90
4518;DHT22;2271;49.464;11.070;2022-08-19T13:21:22;23.20;99.90
4518;DHT22;2271;49.464;11.070;2022-08-19T13:23:49;23.30;99.90
4518;DHT22;2271;49.464;11.070;2022-08-19T13:26:16;23.30;99.90
4518;DHT22;2271;49.464;11.070;2022-08-19T13:28:42;23.30;99.90
4518;DHT22;2271;49.464;11.070;2022-08-19T13:31:29;23.40;99.90
4518;DHT22;2271;49.464;11.070;2022-08-19T13:34:14;23.30;99.90
4518;DHT22;2271;49.464;11.070;2022-08-19T13:36:40;23.30;99.90
4518;DHT22;2271;49.464;11.070;2022-08-19T13:39:07;23.30;99.90
4518;DHT22;2271;49.464;11.070;2022-08-19T13:41:34;23.30;99.90
4518;DHT22;2271;49.464;11.070;2022-08-19T13:44:00;23.30;99.90
4518;DHT22;2271;49.464;11.070;2022-08-19T13:46:27;23.30;99.90
4518;DHT22;2271;49.464;11.070;2022-08-19T13:48:54;23.20;99.90
4518;DHT22;2271;49.464;11.070;2022-08-19T13:51:20;23.20;99.90
4518;DHT22;2271;49.464;11.070;2022-08-19T13:53:46;23.20;99.90
4518;DHT22;2271;49.464;11.070;2022-08-19T13:56:15;23.20;99.90
4518;DHT22;2271;49.464;11.070;2022-08-19T13:58:41;23.20;99.90
4518;DHT22;2271;49.464;11.070;2022-08-19T14:01:07;23.10;99.90
4518;DHT22;2271;49.464;11.070;2022-08-19T14:03:34;23.10;99.90
4518;DHT22;2271;49.464;11.070;2022-08-19T14:06:00;23.20;99.90
4518;DHT22;2271;49.464;11.070;2022-08-19T14:08:26;23.20;99.90
4518;DHT22;2271;49.464;11.070;2022-08-19T14:10:53;23.60;99.90
4518;DHT22;2271;49.464;11.070;2022-08-19T14:13:21;24.00;99.90
4518;DHT22;2271;49.464;11.070;2022-08-19T14:15:47;24.00;99.90
4518;DHT22;2271;49.464;11.070;2022-08-19T14:18:14;24.10;99.90
4518;DHT22;2271;49.464;11.070;2022-08-19T14:20:40;24.30;99.90
4518;DHT22;2271;49.464;11.070;2022-08-19T14:23:06;24.30;99.90
4518;DHT22;2271;49.464;11.070;2022-08-19T14:25:32;24.40;99.90
4518;DHT22;2271;49.464;11.070;2022-08-19T14:27:59;24.40;99.90
4518;DHT22;2271;49.464;11.070;2022-08-19T14:30:30;24.40;99.90
4518;DHT22;2271;49.464;11.070;2022-08-19T14:32:58;24.40;99.90
4518;DHT22;2271;49.464;11.070;2022-08-19T14:35:26;23.80;99.90
4518;DHT22;2271;49.464;11.070;2022-08-19T14:37:52;22.40;99.90
4518;DHT22;2271;49.464;11.070;2022-08-19T14:40:22;21.80;99.90
4518;DHT22;2271;49.464;11.070;2022-08-19T14:42:55;21.70;99.90
4518;DHT22;2271;49.464;11.070;2022-08-19T14:45:26;21.90;99.90
4518;DHT22;2271;49.464;11.070;2022-08-19T14:47:52;21.90;99.90
4518;DHT22;2271;49.464;11.070;2022-08-19T14:50:18;22.00;99.90
4518;DHT22;2271;49.464;11.070;2022-08-19T14:52:47;22.50;99.90
4518;DHT22;2271;49.464;11.070;2022-08-19T14:55:15;23.10;99.90
4518;DHT22;2271;49.464;11.070;2022-08-19T14:57:42;23.40;99.90
4518;DHT22;2271;49.464;11.070;2022-08-19T15:00:08;23.60;99.90
4518;DHT22;2271;49.464;11.070;2022-08-19T15:02:43;23.70;99.90
4518;DHT22;2271;49.464;11.070;2022-08-19T15:05:12;24.00;99.90
4518;DHT22;2271;49.464;11.070;2022-08-19T15:07:38;24.10;99.90
4518;DHT22;2271;49.464;11.070;2022-08-19T15:10:07;24.00;99.90
4518;DHT22;2271;49.464;11.070;2022-08-19T15:12:36;24.10;99.90
4518;DHT22;2271;49.464;11.070;2022-08-19T15:15:06;24.10;99.90
4518;DHT22;2271;49.464;11.070;2022-08-19T15:17:32;24.10;99.90
4518;DHT22;2271;49.464;11.070;2022-08-19T15:19:58;24.00;99.90
4518;DHT22;2271;49.464;11.070;2022-08-19T15:22:24;24.10;99.90
4518;DHT22;2271;49.464;11.070;2022-08-19T15:24:49;24.10;99.90
4518;DHT22;2271;49.464;11.070;2022-08-19T15:27:15;24.00;99.90
4518;DHT22;2271;49.464;11.070;2022-08-19T15:29:40;24.00;99.90
4518;DHT22;2271;49.464;11.070;2022-08-19T15:32:07;24.00;99.90
4518;DHT22;2271;49.464;11.070;2022-08-19T15:34:34;24.00;99.90
4518;DHT22;2271;49.464;11.070;2022-08-19T15:37:00;24.00;99.90
4518;DHT22;2271;49.464;11.070;2022-08-19T15:39:28;23.90;99.90
4518;DHT22;2271;49.464;11.070;2022-08-19T15:41:55;23.90;99.90
4518;DHT22;2271;49.464;11.070;2022-08-19T15:44:21;23.90;99.90
4518;DHT22;2271;49.464;11.070;2022-08-19T15:46:47;23.80;99.90
4518;DHT22;2271;49.464;11.070;2022-08-19T15:49:15;23.80;99.90
4518;DHT22;2271;49.464;11.070;2022-08-19T15:51:43;23.80;99.90
4518;DHT22;2271;49.464;11.070;2022-08-19T15:54:12;23.80;99.90
4518;DHT22;2271;49.464;11.070;2022-08-19T15:56:38;23.80;99.90
4518;DHT22;2271;49.464;11.070;2022-08-19T15:59:23;23.60;99.90